Time;durP1;ratioP1;P1;durP2;ratioP2;P2;SDS_P1;SDS_P2;PMS_P1;PMS_P2;Temp;Humidity;BMP_temperature;BMP_pressure;BME280_temperature;BME280_humidity;BME280_pressure;Samples;Min_cycle;Max_cycle;Signal;HPM_P1;HPM_P2
2022/09/30 00:01:35;;;;;;;;;6.25;6.25;;;;;22.32;39.08;100375.53;4902962;28;45467;-42
2022/09/30 00:04:01;;;;;;;;;9.75;8.00;;;;;22.25;39.00;100382.22;4900951;28;45401;-42
2022/09/30 00:06:28;;;;;;;;;5.25;4.25;;;;;22.23;38.90;100377.03;4902108;28;45223;-42
2022/09/30 00:08:55;;;;;;;;;9.75;7.50;;;;;22.28;38.88;100387.25;4906899;28;46059;-43
2022/09/30 00:11:27;;;;;;;;;8.75;8.00;;;;;22.29;38.91;100388.13;4915773;28;45922;-42
2022/09/30 00:13:54;;;;;;;;;6.75;6.50;;;;;22.23;38.80;100381.47;4918679;28;44661;-41
2022/09/30 00:16:21;;;;;;;;;9.25;8.00;;;;;22.27;38.77;100385.56;4903015;28;45354;-42
2022/09/30 00:18:47;;;;;;;;;7.50;7.50;;;;;22.26;38.93;100383.03;4899105;28;46867;-41
2022/09/30 00:21:14;;;;;;;;;8.75;8.00;;;;;22.26;38.85;100380.41;4900382;29;45491;-41
2022/09/30 00:23:41;;;;;;;;;10.00;9.75;;;;;22.23;38.80;100374.38;4903405;28;45251;-43
2022/09/30 00:26:10;;;;;;;;;8.75;8.25;;;;;22.23;38.39;100379.66;4900820;29;45537;-43
2022/09/30 00:28:37;;;;;;;;;5.25;4.50;;;;;22.23;38.79;100379.66;4900160;28;46111;-42
2022/09/30 00:31:06;;;;;;;;;8.50;7.00;;;;;22.23;38.73;100378.84;4899635;28;45393;-41
2022/09/30 00:33:33;;;;;;;;;6.00;6.00;;;;;22.14;38.62;100372.38;4900551;28;45431;-43
2022/09/30 00:35:59;;;;;;;;;10.00;7.75;;;;;22.21;38.72;100388.66;4902359;28;45461;-42
2022/09/30 00:38:24;;;;;;;;;9.00;8.00;;;;;22.21;38.65;100386.00;4900848;28;46465;-42
2022/09/30 00:40:50;;;;;;;;;9.25;8.00;;;;;22.12;38.26;100369.00;4898675;29;45368;-42
2022/09/30 00:43:39;;;;;;;;;5.50;5.50;;;;;22.20;38.53;100373.75;4898936;28;45509;-41
2022/09/30 00:46:05;;;;;;;;;7.00;7.00;;;;;22.18;38.60;100373.00;4899342;28;46178;-41
2022/09/30 00:48:36;;;;;;;;;6.75;6.75;;;;;22.17;38.73;100380.09;4899187;29;46298;-41
2022/09/30 00:51:03;;;;;;;;;9.75;8.00;;;;;22.17;38.49;100387.16;4897251;29;45465;-41
2022/09/30 00:53:33;;;;;;;;;10.50;8.00;;;;;22.16;38.71;100385.50;4899371;28;45459;-41
2022/09/30 00:56:09;;;;;;;;;10.75;8.00;;;;;22.07;38.58;100368.50;4898925;28;45236;-42
2022/09/30 00:58:38;;;;;;;;;7.50;6.50;;;;;22.14;38.92;100396.16;4899276;29;45724;-43
2022/09/30 01:01:08;;;;;;;;;7.50;7.50;;;;;22.14;38.73;100387.41;4897376;28;45411;-41
2022/09/30 01:03:49;;;;;;;;;7.75;7.75;;;;;22.13;38.85;100385.72;4899165;28;45394;-42
2022/09/30 01:06:15;;;;;;;;;7.25;7.25;;;;;22.10;38.71;100386.78;4902088;28;45263;-43
2022/09/30 01:08:42;;;;;;;;;11.50;8.50;;;;;22.11;38.66;100391.06;4902183;28;45722;-42
2022/09/30 01:11:07;;;;;;;;;9.25;8.75;;;;;22.02;38.75;100386.44;4901777;28;45771;-42
2022/09/30 01:13:35;;;;;;;;;6.75;6.75;;;;;22.03;38.78;100398.69;4900998;29;45311;-42
2022/09/30 01:16:17;;;;;;;;;7.75;7.75;;;;;22.09;38.87;100401.75;4901905;28;45414;-42
2022/09/30 01:19:07;;;;;;;;;8.75;7.25;;;;;22.08;38.60;100399.22;4902340;29;45800;-43
2022/09/30 01:21:51;;;;;;;;;7.00;5.00;;;;;22.05;38.70;100396.78;4902238;28;45940;-42
2022/09/30 01:24:25;;;;;;;;;8.00;7.00;;;;;22.06;38.61;100395.84;4903450;28;45497;-42
2022/09/30 01:27:28;;;;;;;;;11.50;10.00;;;;;22.05;38.63;100391.50;4916660;28;45633;-45
2022/09/30 01:30:21;;;;;;;;;8.50;8.00;;;;;22.04;38.73;100384.53;4924810;28;46020;-42
2022/09/30 01:33:09;;;;;;;;;9.50;8.75;;;;;22.04;38.78;100389.81;4925143;28;45224;-43
2022/09/30 01:35:56;;;;;;;;;8.00;7.00;;;;;21.97;38.79;100384.13;4924691;28;44770;-44
2022/09/30 01:38:35;;;;;;;;;8.00;7.50;;;;;22.02;38.61;100389.94;4910100;28;45288;-42
2022/09/30 01:41:17;;;;;;;;;7.50;7.50;;;;;22.04;38.87;100395.09;4914008;29;45708;-43
2022/09/30 01:43:46;;;;;;;;;8.25;6.75;;;;;22.01;38.59;100388.25;4902294;28;45899;-42
2022/09/30 01:46:26;;;;;;;;;8.00;8.00;;;;;22.00;38.92;100389.19;4902604;28;45506;-42
2022/09/30 01:49:01;;;;;;;;;7.25;6.25;;;;;21.98;38.61;100384.97;4902172;28;45406;-43
2022/09/30 01:51:36;;;;;;;;;9.00;8.00;;;;;21.98;39.08;100393.72;4901223;29;46122;-42
2022/09/30 01:54:26;;;;;;;;;8.25;7.25;;;;;21.97;38.96;100394.66;4903657;28;45452;-42
2022/09/30 01:56:58;;;;;;;;;8.00;7.50;;;;;21.91;38.90;100393.28;4904647;28;45258;-43
2022/09/30 01:59:44;;;;;;;;;5.75;5.75;;;;;21.95;38.71;100395.72;4903512;28;45434;-44
2022/09/30 02:02:24;;;;;;;;;9.25;8.00;;;;;21.95;39.14;100401.00;4901691;28;47029;-41
2022/09/30 02:05:14;;;;;;;;;10.00;8.00;;;;;21.93;38.85;100398.47;4899738;29;46887;-43
2022/09/30 02:07:46;;;;;;;;;9.75;8.75;;;;;21.91;38.57;100395.94;4901502;28;45323;-42
2022/09/30 02:10:33;;;;;;;;;7.75;7.50;;;;;21.93;39.08;100394.03;4899653;29;45465;-42
2022/09/30 02:13:07;;;;;;;;;10.00;7.00;;;;;21.93;38.85;100393.22;4900596;28;45525;-42
2022/09/30 02:15:38;;;;;;;;;8.00;8.00;;;;;21.92;38.87;100394.16;4900580;28;45401;-41
2022/09/30 02:18:12;;;;;;;;;6.75;6.75;;;;;21.84;38.75;100381.47;4900706;29;45253;-43
2022/09/30 02:20:42;;;;;;;;;9.00;7.25;;;;;21.91;39.06;100392.47;4901389;29;45276;-41
2022/09/30 02:23:10;;;;;;;;;6.25;6.25;;;;;21.84;38.66;100378.84;4900944;28;46280;-42
2022/09/30 02:25:43;;;;;;;;;8.00;8.00;;;;;21.91;38.86;100393.28;4900743;28;45779;-42
2022/09/30 02:28:16;;;;;;;;;9.00;6.00;;;;;21.90;38.76;100381.03;4900932;28;45398;-42
2022/09/30 02:30:46;;;;;;;;;8.75;6.75;;;;;21.82;39.13;100378.09;4900652;28;45896;-42
2022/09/30 02:33:17;;;;;;;;;6.75;5.75;;;;;21.90;39.02;100385.50;4900458;28;46484;-42
2022/09/30 02:35:53;;;;;;;;;7.00;7.00;;;;;21.90;38.93;100386.31;4900239;29;45884;-42
2022/09/30 02:38:23;;;;;;;;;9.25;8.50;;;;;21.88;38.96;100382.09;4900712;28;45389;-41
2022/09/30 02:41:01;;;;;;;;;7.25;7.00;;;;;21.85;38.58;100380.53;4900562;28;45481;-42
2022/09/30 02:43:28;;;;;;;;;8.00;8.00;;;;;21.87;39.01;100391.84;4900418;28;46229;-42
2022/09/30 02:46:12;;;;;;;;;6.50;6.50;;;;;21.87;38.87;100386.56;4899188;29;45326;-43
2022/09/30 02:48:43;;;;;;;;;9.00;9.00;;;;;21.82;39.06;100377.25;4909631;28;45319;-42
2022/09/30 02:51:30;;;;;;;;;8.25;6.50;;;;;21.87;39.10;100391.84;4905953;28;45537;-45
2022/09/30 02:54:13;;;;;;;;;7.00;7.00;;;;;21.86;39.16;100400.69;4883769;29;45829;-43
2022/09/30 02:56:57;;;;;;;;;8.50;7.00;;;;;21.84;39.25;100397.31;4881708;29;45256;-42
2022/09/30 02:59:24;;;;;;;;;6.00;6.00;;;;;21.84;38.79;100399.09;4881348;29;45393;-42
2022/09/30 03:01:49;;;;;;;;;9.00;7.00;;;;;21.76;39.06;100389.06;4881390;29;45619;-42
2022/09/30 03:04:21;;;;;;;;;7.00;7.00;;;;;21.76;38.95;100397.00;4881061;29;46475;-44
2022/09/30 03:06:47;;;;;;;;;8.00;8.00;;;;;21.75;38.89;100392.66;4888600;28;45785;-43
2022/09/30 03:09:12;;;;;;;;;7.00;7.00;;;;;21.83;39.08;100408.81;4900570;28;45351;-42
2022/09/30 03:11:39;;;;;;;;;9.00;7.25;;;;;21.82;38.80;100412.38;4900851;28;45528;-42
2022/09/30 03:14:23;;;;;;;;;7.00;7.00;;;;;21.75;39.10;100405.84;4899887;28;45441;-42
2022/09/30 03:16:57;;;;;;;;;5.00;5.00;;;;;21.81;39.24;100418.59;4899583;28;45182;-42
2022/09/30 03:19:37;;;;;;;;;7.00;7.00;;;;;21.82;38.94;100428.22;4899984;28;45319;-42
2022/09/30 03:22:33;;;;;;;;;6.50;6.00;;;;;21.81;39.27;100433.59;4900136;28;45687;-42
2022/09/30 03:25:16;;;;;;;;;7.00;6.00;;;;;21.80;39.19;100435.38;4899299;28;45494;-42
2022/09/30 03:28:06;;;;;;;;;7.25;7.25;;;;;21.80;38.76;100443.31;4898761;28;45413;-44
2022/09/30 03:30:40;;;;;;;;;8.00;7.00;;;;;21.80;39.24;100445.94;4899917;28;45291;-42
2022/09/30 03:33:12;;;;;;;;;6.75;6.75;;;;;21.78;39.01;100448.69;4900063;28;45472;-42
2022/09/30 03:35:59;;;;;;;;;6.50;6.00;;;;;21.80;39.14;100458.28;4899929;28;46488;-43
2022/09/30 03:38:49;;;;;;;;;8.00;7.50;;;;;21.77;39.15;100457.53;4880898;29;45377;-41
2022/09/30 03:41:37;;;;;;;;;8.25;7.00;;;;;21.77;39.02;100456.72;4880862;29;45479;-43
2022/09/30 03:44:30;;;;;;;;;9.25;7.00;;;;;21.78;38.99;100466.28;4880780;29;45449;-44
2022/09/30 03:47:16;;;;;;;;;9.25;6.25;;;;;21.77;39.17;100476.00;4880506;29;46796;-42
2022/09/30 03:49:48;;;;;;;;;7.25;7.25;;;;;21.77;39.04;100480.47;4880536;29;45389;-42
2022/09/30 03:52:14;;;;;;;;;10.50;7.75;;;;;21.76;39.11;100494.59;4896260;28;46844;-42
2022/09/30 03:54:45;;;;;;;;;8.00;8.00;;;;;21.77;39.04;100491.00;4900104;28;45464;-43
2022/09/30 03:57:10;;;;;;;;;7.00;7.00;;;;;21.76;39.21;100494.59;4898961;29;46686;-42
2022/09/30 03:59:36;;;;;;;;;7.50;7.00;;;;;21.75;39.35;100498.16;4902231;28;45220;-41
2022/09/30 04:02:02;;;;;;;;;7.00;7.00;;;;;21.75;39.31;100495.53;4905991;28;55335;-41
2022/09/30 04:04:27;;;;;;;;;6.00;6.00;;;;;21.75;39.01;100500.81;4910199;29;45336;-42
2022/09/30 04:06:52;;;;;;;;;7.25;7.25;;;;;21.74;39.08;100501.75;4913931;28;45535;-41
2022/09/30 04:09:18;;;;;;;;;8.00;8.00;;;;;21.74;38.97;100512.31;4915656;28;46263;-43
2022/09/30 04:11:43;;;;;;;;;8.00;8.00;;;;;21.68;38.91;100512.69;4899570;29;45245;-42
2022/09/30 04:14:09;;;;;;;;;7.50;7.50;;;;;21.68;38.93;100513.56;4900026;28;45572;-42
2022/09/30 04:16:34;;;;;;;;;7.00;6.75;;;;;21.74;38.85;100528.13;4899102;28;46175;-42
2022/09/30 04:19:00;;;;;;;;;6.50;5.75;;;;;21.74;39.08;100536.03;4899259;28;45212;-42
2022/09/30 04:21:28;;;;;;;;;6.00;6.00;;;;;21.74;39.31;100543.97;4899567;28;45465;-42
2022/09/30 04:23:54;;;;;;;;;9.25;6.75;;;;;21.73;39.28;100542.25;4899126;28;45619;-40
2022/09/30 04:26:20;;;;;;;;;8.00;7.75;;;;;21.71;39.43;100541.50;4898835;28;46118;-40
2022/09/30 04:28:46;;;;;;;;;8.00;6.75;;;;;21.73;39.35;100552.81;4898853;28;45308;-41
2022/09/30 04:31:13;;;;;;;;;6.00;6.00;;;;;21.74;39.29;100554.50;4897860;29;45362;-41
2022/09/30 04:33:39;;;;;;;;;5.25;5.25;;;;;21.76;39.37;100552.63;4898301;29;45386;-42
2022/09/30 04:36:05;;;;;;;;;6.75;6.75;;;;;21.80;39.06;100550.63;4898997;28;46304;-41
2022/09/30 04:38:32;;;;;;;;;7.00;7.00;;;;;21.81;39.28;100547.88;4898958;28;45414;-41
2022/09/30 04:41:05;;;;;;;;;7.00;5.25;;;;;21.85;39.36;100556.44;4901375;28;45471;-42
2022/09/30 04:43:33;;;;;;;;;10.75;6.00;;;;;21.89;39.55;100557.94;4902794;28;45470;-41
2022/09/30 04:45:58;;;;;;;;;6.00;6.00;;;;;21.91;39.34;100562.16;4901730;28;45448;-41
2022/09/30 04:48:24;;;;;;;;;6.00;6.00;;;;;21.96;39.49;100563.66;4902151;28;45495;-41
2022/09/30 04:50:50;;;;;;;;;6.50;6.00;;;;;21.92;39.11;100553.28;4902374;28;45434;-42
2022/09/30 04:53:16;;;;;;;;;6.25;6.00;;;;;22.02;39.53;100563.25;4903260;28;45802;-41
2022/09/30 04:55:43;;;;;;;;;5.50;5.50;;;;;21.98;39.33;100551.22;4902883;28;45436;-41
2022/09/30 04:58:10;;;;;;;;;6.00;6.00;;;;;22.08;39.24;100568.13;4909130;28;45246;-42
2022/09/30 05:00:36;;;;;;;;;6.50;5.75;;;;;22.04;38.99;100556.94;4908521;28;45336;-41
2022/09/30 05:03:02;;;;;;;;;6.75;5.00;;;;;22.14;38.95;100567.72;4904120;28;45417;-41
2022/09/30 05:05:27;;;;;;;;;5.00;5.00;;;;;22.17;39.13;100569.28;4902293;28;45562;-41
2022/09/30 05:07:59;;;;;;;;;6.75;5.75;;;;;22.17;39.26;100572.78;4901729;28;45458;-40
2022/09/30 05:10:25;;;;;;;;;6.50;5.75;;;;;22.19;38.94;100575.31;4901922;28;45184;-43
2022/09/30 05:12:51;;;;;;;;;5.50;5.50;;;;;22.22;39.12;100581.22;4903450;28;45775;-42
2022/09/30 05:15:16;;;;;;;;;9.50;5.75;;;;;22.27;38.97;100582.72;4903511;28;46519;-41
2022/09/30 05:17:42;;;;;;;;;7.00;5.25;;;;;22.27;39.03;100582.72;4901801;28;45442;-41
2022/09/30 05:20:09;;;;;;;;;4.75;4.75;;;;;22.29;38.76;100579.03;4902745;28;45492;-41
2022/09/30 05:22:35;;;;;;;;;7.50;5.25;;;;;22.31;38.79;100578.94;4900692;29;45282;-41
2022/09/30 05:25:02;;;;;;;;;8.00;6.00;;;;;22.26;38.90;100562.56;4901776;28;45406;-40
2022/09/30 05:27:28;;;;;;;;;6.75;5.50;;;;;22.30;38.90;100566.69;4919511;28;45160;-42
2022/09/30 05:29:53;;;;;;;;;8.00;6.50;;;;;22.37;38.74;100586.44;4905179;28;45460;-41
2022/09/30 05:32:20;;;;;;;;;5.75;4.75;;;;;22.38;38.86;100585.50;4902218;29;45148;-41
2022/09/30 05:34:46;;;;;;;;;5.25;4.00;;;;;22.40;38.95;100588.88;4902325;28;46666;-41
2022/09/30 05:37:11;;;;;;;;;4.25;4.25;;;;;22.41;38.88;100593.25;4904294;28;45471;-41
2022/09/30 05:39:37;;;;;;;;;5.00;5.00;;;;;22.34;38.72;100579.59;4911055;28;45726;-40
2022/09/30 05:42:02;;;;;;;;;6.50;5.50;;;;;22.43;38.82;100596.66;4915151;29;45287;-41
2022/09/30 05:44:27;;;;;;;;;4.00;4.00;;;;;22.43;38.64;100599.28;4915033;28;46238;-41
2022/09/30 05:46:53;;;;;;;;;5.00;4.00;;;;;22.45;38.65;100601.81;4908852;28;45390;-41
2022/09/30 05:49:18;;;;;;;;;7.50;5.50;;;;;22.46;38.88;100606.16;4901508;28;45549;-42
2022/09/30 05:51:43;;;;;;;;;5.75;5.75;;;;;22.46;38.66;100606.16;4901052;28;45452;-45
2022/09/30 05:54:10;;;;;;;;;5.75;4.25;;;;;22.45;38.75;100607.94;4900075;29;46505;-42
2022/09/30 05:56:37;;;;;;;;;5.50;5.25;;;;;22.45;38.61;100607.94;4900950;28;45261;-44
2022/09/30 05:59:03;;;;;;;;;5.00;5.00;;;;;22.45;38.50;100601.81;4900952;28;45336;-43
2022/09/30 06:01:29;;;;;;;;;3.00;3.00;;;;;22.44;38.56;100610.69;4901265;28;45533;-41
2022/09/30 06:03:54;;;;;;;;;6.50;5.50;;;;;22.45;38.57;100613.22;4900197;28;46658;-42
2022/09/30 06:06:20;;;;;;;;;6.75;5.50;;;;;22.37;38.32;100594.38;4901326;28;45339;-43
2022/09/30 06:08:45;;;;;;;;;8.00;8.00;;;;;22.40;37.96;100615.28;4900971;28;45490;-42
2022/09/30 06:11:14;;;;;;;;;8.00;8.00;;;;;22.38;37.87;100623.28;4901395;28;45367;-42
2022/09/30 06:13:40;;;;;;;;;10.00;8.00;;;;;22.36;37.88;100640.19;4901615;28;46256;-41
2022/09/30 06:16:07;;;;;;;;;8.50;7.25;;;;;22.33;37.40;100629.84;4901098;29;45376;-41
2022/09/30 06:18:32;;;;;;;;;9.00;8.00;;;;;22.23;37.96;100621.69;4901302;28;45220;-41
2022/09/30 06:21:00;;;;;;;;;9.25;8.25;;;;;22.28;37.52;100637.22;4901381;28;45180;-41
2022/09/30 06:23:26;;;;;;;;;9.25;8.00;;;;;22.17;37.77;100628.22;4899527;29;45469;-41
2022/09/30 06:25:53;;;;;;;;;7.75;7.75;;;;;22.18;37.86;100643.13;4883583;29;45930;-42
2022/09/30 06:28:19;;;;;;;;;8.25;7.75;;;;;22.15;37.97;100638.03;4901199;28;45377;-41
2022/09/30 06:30:45;;;;;;;;;7.00;7.00;;;;;22.20;37.74;100650.94;4899571;28;45631;-41
2022/09/30 06:33:12;;;;;;;;;9.25;9.25;;;;;22.17;37.49;100651.97;4901022;28;47035;-42
2022/09/30 06:35:40;;;;;;;;;7.50;7.00;;;;;22.17;37.77;100659.03;4901249;28;45256;-41
2022/09/30 06:38:06;;;;;;;;;10.25;9.50;;;;;22.07;37.80;100651.72;4900707;28;45508;-41
2022/09/30 06:40:31;;;;;;;;;10.75;10.75;;;;;22.14;37.72;100657.44;4901676;28;45352;-41
2022/09/30 06:42:58;;;;;;;;;11.00;11.00;;;;;22.12;37.52;100654.06;4901973;28;45385;-40
2022/09/30 06:45:24;;;;;;;;;8.75;8.75;;;;;22.11;37.61;100659.44;4911545;28;45866;-41
2022/09/30 06:47:50;;;;;;;;;12.00;9.25;;;;;22.10;37.34;100666.53;4920887;28;44704;-42
2022/09/30 06:50:17;;;;;;;;;11.25;10.25;;;;;22.01;37.71;100659.19;4915871;28;44898;-41
2022/09/30 06:52:42;;;;;;;;;11.00;10.00;;;;;22.06;37.56;100670.31;4922751;29;45338;-41
2022/09/30 06:55:07;;;;;;;;;11.00;9.75;;;;;22.04;37.49;100677.47;4920471;28;45499;-41
2022/09/30 06:57:34;;;;;;;;;9.00;9.00;;;;;21.96;37.69;100659.47;4917929;29;45370;-41
2022/09/30 07:00:00;;;;;;;;;12.00;8.75;;;;;22.03;37.57;100675.78;4920316;28;44893;-41
2022/09/30 07:02:28;;;;;;;;;8.25;8.00;;;;;22.01;37.61;100672.38;4917595;28;45581;-42
2022/09/30 07:04:53;;;;;;;;;9.00;9.00;;;;;21.93;37.52;100668.44;4916794;28;45213;-40
2022/09/30 07:07:21;;;;;;;;;10.00;10.00;;;;;21.99;37.26;100669.03;4904462;28;45489;-42
2022/09/30 07:09:46;;;;;;;;;9.00;9.00;;;;;21.90;37.88;100663.38;4902318;28;45319;-40
2022/09/30 07:12:12;;;;;;;;;10.25;10.25;;;;;21.97;37.62;100674.38;4901263;28;47424;-40
2022/09/30 07:14:37;;;;;;;;;12.50;10.25;;;;;21.97;37.75;100666.47;4901018;28;45315;-41
2022/09/30 07:17:04;;;;;;;;;11.25;10.50;;;;;21.97;37.59;100665.63;4899189;29;45650;-42
2022/09/30 07:19:30;;;;;;;;;11.75;11.50;;;;;21.95;37.42;100659.59;4900888;28;45274;-40
2022/09/30 07:22:26;;;;;;;;;8.50;8.50;;;;;21.95;37.83;100663.06;4900305;28;45335;-40
2022/09/30 07:24:42;;;;;;;;;9.25;9.25;;;;;21.85;37.91;100652.28;4901590;29;45342;-42
2022/09/30 07:27:07;;;;;;;;;12.50;9.25;;;;;21.93;37.71;100662.34;4900037;28;45433;-40
2022/09/30 07:29:32;;;;;;;;;11.00;9.25;;;;;21.92;37.63;100669.41;4901201;28;45439;-40
2022/09/30 07:31:58;;;;;;;;;11.00;9.75;;;;;21.91;37.58;100675.63;4900110;28;46286;-43
2022/09/30 07:34:23;;;;;;;;;10.00;8.25;;;;;21.90;37.67;100673.91;4901896;28;45778;-41
2022/09/30 07:36:48;;;;;;;;;12.00;9.00;;;;;21.89;37.62;100680.13;4913819;28;45282;-42
2022/09/30 07:39:17;;;;;;;;;9.00;8.25;;;;;21.81;37.54;100671.88;4914268;28;45564;-42
2022/09/30 07:41:43;;;;;;;;;11.50;9.00;;;;;21.78;37.74;100666.78;4900630;29;46564;-42
2022/09/30 07:44:13;;;;;;;;;9.25;9.00;;;;;21.84;37.91;100682.22;4902366;28;45780;-40
2022/09/30 07:46:39;;;;;;;;;12.25;9.00;;;;;21.77;37.58;100670.38;4902262;28;45409;-41
2022/09/30 07:49:07;;;;;;;;;11.00;11.00;;;;;21.82;37.49;100688.56;4900856;28;45593;-41
2022/09/30 07:51:39;;;;;;;;;11.25;11.25;;;;;21.74;37.91;100674.03;4903029;29;46317;-41
2022/09/30 07:54:06;;;;;;;;;11.25;9.00;;;;;21.81;37.70;100681.59;4903915;29;45469;-40
2022/09/30 07:56:33;;;;;;;;;14.00;11.00;;;;;21.79;37.74;100681.66;4914506;28;45354;-43
2022/09/30 07:59:00;;;;;;;;;10.50;8.50;;;;;21.78;37.58;100691.38;4921221;28;45096;-40
2022/09/30 08:01:27;;;;;;;;;10.75;9.00;;;;;21.76;37.57;100690.63;4919531;28;45491;-41
2022/09/30 08:03:54;;;;;;;;;12.00;9.00;;;;;21.77;37.62;100688.84;4918252;28;45435;-41
2022/09/30 08:06:20;;;;;;;;;9.25;9.25;;;;;21.71;37.61;100676.91;4921575;28;44784;-41
2022/09/30 08:08:46;;;;;;;;;8.00;7.00;;;;;21.77;37.94;100688.84;4911719;28;45316;-41
2022/09/30 08:11:13;;;;;;;;;7.50;7.50;;;;;21.76;37.98;100689.78;4911315;28;45342;-40
2022/09/30 08:13:39;;;;;;;;;9.50;8.25;;;;;21.62;37.79;100666.91;4912839;28;45258;-39
2022/09/30 08:16:05;;;;;;;;;7.75;7.00;;;;;21.75;38.00;100685.47;4915769;28;45420;-38
2022/09/30 08:18:30;;;;;;;;;9.75;9.00;;;;;21.74;37.90;100692.50;4916376;28;45540;-40
2022/09/30 08:20:56;;;;;;;;;12.25;9.50;;;;;21.74;37.71;100689.03;4920275;29;48897;-43
2022/09/30 08:23:21;;;;;;;;;9.75;9.75;;;;;21.74;37.77;100689.88;4920473;28;45236;-42
2022/09/30 08:25:47;;;;;;;;;11.50;10.00;;;;;21.76;37.85;100690.63;4915962;28;45410;-40
2022/09/30 08:28:13;;;;;;;;;16.00;11.25;;;;;21.75;37.58;100690.72;4913601;28;45354;-40
2022/09/30 08:30:39;;;;;;;;;14.75;12.75;;;;;21.75;38.06;100696.00;4912070;28;46929;-40
2022/09/30 08:33:05;;;;;;;;;13.00;12.00;;;;;21.75;37.92;100693.38;4910457;28;45335;-40
2022/09/30 08:35:30;;;;;;;;;11.00;11.00;;;;;21.68;37.95;100682.34;4905632;28;45232;-40
2022/09/30 08:37:56;;;;;;;;;12.00;10.50;;;;;21.74;37.94;100694.31;4907622;28;45469;-40
2022/09/30 08:40:25;;;;;;;;;12.25;11.50;;;;;21.74;37.58;100697.78;4909579;28;45442;-40
2022/09/30 08:43:12;;;;;;;;;11.50;11.50;;;;;21.74;37.85;100702.22;4912080;28;45462;-42
2022/09/30 08:45:58;;;;;;;;;14.50;11.00;;;;;21.72;37.75;100702.31;4908382;28;45417;-41
2022/09/30 08:48:30;;;;;;;;;16.50;12.50;;;;;21.65;37.56;100692.25;4906249;28;45505;-41
2022/09/30 08:51:37;;;;;;;;;11.00;9.75;;;;;21.62;37.89;100686.22;4906787;28;45720;-43
2022/09/30 08:54:09;;;;;;;;;13.00;11.00;;;;;21.62;37.97;100683.59;4901101;29;46057;-47
2022/09/30 08:56:35;;;;;;;;;10.50;9.25;;;;;21.69;37.49;100694.59;4903874;28;45291;-42
2022/09/30 08:59:29;;;;;;;;;10.50;10.00;;;;;21.70;37.80;100692.81;4902617;29;45407;-47
2022/09/30 09:02:26;;;;;;;;;10.00;10.00;;;;;21.68;37.47;100692.03;4902095;28;45594;-43
2022/09/30 09:04:56;;;;;;;;;12.50;9.50;;;;;21.69;37.33;100696.38;4883712;28;46004;-41
2022/09/30 09:07:31;;;;;;;;;11.50;9.75;;;;;21.66;37.52;100693.97;4884139;29;45438;-41
2022/09/30 09:10:24;;;;;;;;;9.00;9.00;;;;;21.67;37.67;100692.97;4884606;29;45217;-42
2022/09/30 09:13:14;;;;;;;;;12.00;10.00;;;;;21.65;37.28;100697.53;4885182;29;46413;-41
2022/09/30 09:16:13;;;;;;;;;7.00;7.00;;;;;21.65;37.46;100697.53;4883167;29;45354;-42
2022/09/30 09:18:51;;;;;;;;;8.50;8.50;;;;;21.65;37.52;100697.53;4902977;28;45571;-41
2022/09/30 09:21:27;;;;;;;;;8.25;7.00;;;;;21.65;37.35;100703.63;4905559;28;45281;-43
2022/09/30 09:23:56;;;;;;;;;10.25;7.00;;;;;21.62;37.10;100702.03;4910187;28;45614;-42
2022/09/30 09:26:23;;;;;;;;;7.00;7.00;;;;;21.63;37.26;100710.78;4909152;28;45293;-43
2022/09/30 09:29:00;;;;;;;;;10.00;8.75;;;;;21.62;37.06;100715.22;4914389;28;45336;-43
2022/09/30 09:31:26;;;;;;;;;8.00;8.00;;;;;21.60;37.41;100714.47;4908767;28;45345;-41
2022/09/30 09:33:58;;;;;;;;;8.50;7.50;;;;;21.54;37.11;100708.69;4910512;28;48070;-41
2022/09/30 09:36:54;;;;;;;;;7.00;7.00;;;;;21.60;36.75;100722.38;4915891;28;45390;-41
2022/09/30 09:39:37;;;;;;;;;6.75;6.75;;;;;21.61;36.93;100725.88;4917134;28;44711;-42
2022/09/30 09:42:21;;;;;;;;;4.75;4.50;;;;;21.60;37.12;100722.38;4918356;28;45402;-43
2022/09/30 09:45:02;;;;;;;;;6.00;6.00;;;;;21.60;36.47;100726.84;4922422;28;45614;-42
2022/09/30 09:47:27;;;;;;;;;7.25;6.25;;;;;21.59;36.63;100725.97;4921478;28;45468;-42
2022/09/30 09:49:57;;;;;;;;;5.25;5.25;;;;;21.57;36.73;100727.81;4921466;28;50994;-41
2022/09/30 09:52:56;;;;;;;;;6.25;5.00;;;;;21.58;36.74;100723.41;4921554;28;44704;-41
2022/09/30 09:55:22;;;;;;;;;6.00;4.00;;;;;21.57;36.85;100732.25;4920770;29;45605;-41
2022/09/30 09:58:04;;;;;;;;;5.75;4.50;;;;;21.56;36.87;100726.13;4911320;28;45149;-42
2022/09/30 10:03:22;;;;;;;;;6.50;4.25;;;;;21.55;36.50;100724.41;4906898;28;45432;-41
2022/09/30 10:06:01;;;;;;;;;5.75;3.75;;;;;21.46;36.59;100709.16;4905584;28;45516;-43
2022/09/30 10:08:30;;;;;;;;;5.50;4.00;;;;;21.54;36.58;100717.47;4903992;28;45284;-42
2022/09/30 10:10:59;;;;;;;;;4.00;3.50;;;;;21.54;36.55;100720.13;4901531;28;45311;-41
2022/09/30 10:13:44;;;;;;;;;3.00;3.00;;;;;21.54;36.75;100720.13;4902697;28;45520;-43
2022/09/30 10:16:25;;;;;;;;;3.00;3.00;;;;;21.54;36.48;100722.75;4903308;28;45560;-46
2022/09/30 10:18:50;;;;;;;;;4.25;3.00;;;;;21.54;36.68;100722.75;4901499;29;46066;-42
2022/09/30 10:21:18;;;;;;;;;4.00;4.00;;;;;21.54;36.31;100727.16;4902456;28;45424;-42
2022/09/30 10:23:44;;;;;;;;;6.50;4.00;;;;;21.47;36.72;100708.22;4901774;28;45612;-40
2022/09/30 10:26:18;;;;;;;;;6.00;5.00;;;;;21.43;36.53;100701.47;4901167;28;45471;-41
2022/09/30 10:28:45;;;;;;;;;4.00;4.00;;;;;21.57;36.67;100721.72;4900249;29;45482;-39
2022/09/30 10:31:27;;;;;;;;;4.00;4.00;;;;;21.55;37.06;100713.88;4901839;28;45343;-40
2022/09/30 10:34:03;;;;;;;;;5.00;4.50;;;;;21.57;37.26;100713.78;4900638;28;45511;-40
2022/09/30 10:36:34;;;;;;;;;5.00;3.50;;;;;21.57;36.76;100722.53;4900817;28;45672;-40
2022/09/30 10:39:25;;;;;;;;;3.00;3.00;;;;;21.58;36.99;100721.59;4901113;28;45240;-40
2022/09/30 10:42:22;;;;;;;;;4.25;4.25;;;;;21.61;36.88;100723.22;4899723;28;45397;-42
2022/09/30 10:44:52;;;;;;;;;4.50;4.50;;;;;21.60;36.68;100717.13;4900610;28;45274;-42
2022/09/30 10:47:27;;;;;;;;;4.00;3.00;;;;;21.53;36.64;100713.13;4900111;28;46500;-42
2022/09/30 10:50:10;;;;;;;;;5.25;5.25;;;;;21.59;36.49;100725.97;4899289;29;46258;-42
2022/09/30 10:52:43;;;;;;;;;4.50;4.50;;;;;21.50;36.78;100699.31;4899183;29;45908;-42
2022/09/30 10:55:42;;;;;;;;;4.50;4.50;;;;;21.59;36.46;100715.41;4899644;28;45328;-44
2022/09/30 10:58:29;;;;;;;;;4.75;3.75;;;;;21.50;36.92;100710.69;4900350;28;46981;-42
2022/09/30 11:01:15;;;;;;;;;4.00;4.00;;;;;21.48;36.64;100702.00;4901048;28;45904;-42
2022/09/30 11:03:56;;;;;;;;;7.00;5.00;;;;;21.57;36.54;100716.44;4901614;28;45735;-41
2022/09/30 11:06:23;;;;;;;;;5.25;5.25;;;;;21.54;36.56;100711.34;4901046;28;45479;-41
2022/09/30 11:08:57;;;;;;;;;6.00;4.00;;;;;21.56;36.80;100718.19;4915013;28;47313;-41
2022/09/30 11:11:42;;;;;;;;;4.50;4.50;;;;;21.55;37.03;100713.88;4906976;28;45381;-42
2022/09/30 11:14:18;;;;;;;;;4.50;4.50;;;;;21.56;36.99;100710.28;4900765;28;45442;-41
2022/09/30 11:17:04;;;;;;;;;6.75;4.75;;;;;21.56;36.77;100710.28;4899289;28;45323;-42
2022/09/30 11:19:36;;;;;;;;;3.25;3.25;;;;;21.56;36.55;100702.38;4900625;28;46652;-43
2022/09/30 11:22:25;;;;;;;;;5.25;4.00;;;;;21.55;36.63;100719.13;4899866;28;45864;-43
2022/09/30 11:24:53;;;;;;;;;4.75;4.00;;;;;21.56;36.48;100712.94;4899915;28;45263;-42
2022/09/30 11:27:52;;;;;;;;;4.00;4.00;;;;;21.56;36.66;100707.66;4900433;28;45209;-42
2022/09/30 11:30:39;;;;;;;;;4.75;4.75;;;;;21.54;36.42;100704.28;4900137;28;45776;-41
2022/09/30 11:33:31;;;;;;;;;3.00;3.00;;;;;21.51;36.30;100700.97;4879627;29;45780;-41
2022/09/30 11:36:25;;;;;;;;;5.50;4.25;;;;;21.49;36.66;100687.06;4880752;29;45340;-42
2022/09/30 11:39:06;;;;;;;;;5.75;5.00;;;;;21.59;36.32;100709.31;4881726;29;45521;-41
2022/09/30 11:41:39;;;;;;;;;4.00;4.00;;;;;21.58;36.09;100708.41;4881146;29;46165;-40
2022/09/30 11:44:34;;;;;;;;;4.00;4.00;;;;;21.58;35.83;100713.69;4882081;29;45809;-43
2022/09/30 11:47:26;;;;;;;;;5.00;3.50;;;;;21.50;36.20;100710.69;4901635;28;45393;-41
2022/09/30 11:49:57;;;;;;;;;4.00;4.00;;;;;21.57;36.11;100722.53;4904082;29;45321;-42